sensor_id;sensor_type;location;lat;lon;timestamp;P1;durP1;ratioP1;P2;durP2;ratioP2
14738;SDS011;7461;52.440;13.540;2022-10-04T00:02:02;11.38;;;3.45;;
14738;SDS011;7461;52.440;13.540;2022-10-04T00:04:31;6.95;;;2.72;;
14738;SDS011;7461;52.440;13.540;2022-10-04T00:07:13;10.63;;;3.72;;
14738;SDS011;7461;52.440;13.540;2022-10-04T00:09:44;9.98;;;3.05;;
14738;SDS011;7461;52.440;13.540;2022-10-04T00:12:15;7.40;;;2.92;;
14738;SDS011;7461;52.440;13.540;2022-10-04T00:14:45;7.10;;;3.40;;
14738;SDS011;7461;52.440;13.540;2022-10-04T00:17:13;11.35;;;3.92;;
14738;SDS011;7461;52.440;13.540;2022-10-04T00:19:49;10.32;;;3.33;;
14738;SDS011;7461;52.440;13.540;2022-10-04T00:22:28;9.45;;;3.00;;
14738;SDS011;7461;52.440;13.540;2022-10-04T00:31:07;7.18;;;3.38;;
14738;SDS011;7461;52.440;13.540;2022-10-04T00:33:46;11.70;;;3.63;;
14738;SDS011;7461;52.440;13.540;2022-10-04T00:36:33;8.57;;;3.50;;
14738;SDS011;7461;52.440;13.540;2022-10-04T00:39:15;8.43;;;3.92;;
14738;SDS011;7461;52.440;13.540;2022-10-04T00:41:59;8.38;;;3.85;;
14738;SDS011;7461;52.440;13.540;2022-10-04T00:44:32;8.18;;;2.55;;
14738;SDS011;7461;52.440;13.540;2022-10-04T00:47:11;6.72;;;2.85;;
14738;SDS011;7461;52.440;13.540;2022-10-04T00:49:44;6.60;;;2.55;;
14738;SDS011;7461;52.440;13.540;2022-10-04T00:52:14;9.27;;;2.85;;
14738;SDS011;7461;52.440;13.540;2022-10-04T00:54:47;4.68;;;2.20;;
14738;SDS011;7461;52.440;13.540;2022-10-04T00:57:16;5.32;;;2.70;;
14738;SDS011;7461;52.440;13.540;2022-10-04T00:59:48;3.60;;;2.40;;
14738;SDS011;7461;52.440;13.540;2022-10-04T01:02:18;8.93;;;2.95;;
14738;SDS011;7461;52.440;13.540;2022-10-04T01:04:48;9.90;;;2.90;;
14738;SDS011;7461;52.440;13.540;2022-10-04T01:07:21;7.20;;;4.18;;
14738;SDS011;7461;52.440;13.540;2022-10-04T01:09:54;8.30;;;2.67;;
14738;SDS011;7461;52.440;13.540;2022-10-04T01:12:26;10.60;;;3.90;;
14738;SDS011;7461;52.440;13.540;2022-10-04T01:15:05;8.75;;;3.35;;
14738;SDS011;7461;52.440;13.540;2022-10-04T01:17:38;5.45;;;3.15;;
14738;SDS011;7461;52.440;13.540;2022-10-04T01:20:12;10.25;;;3.25;;
14738;SDS011;7461;52.440;13.540;2022-10-04T01:22:56;8.20;;;3.40;;
14738;SDS011;7461;52.440;13.540;2022-10-04T01:28:08;7.93;;;3.10;;
14738;SDS011;7461;52.440;13.540;2022-10-04T01:30:35;6.65;;;2.67;;
14738;SDS011;7461;52.440;13.540;2022-10-04T01:33:02;6.40;;;3.08;;
14738;SDS011;7461;52.440;13.540;2022-10-04T01:35:31;8.63;;;3.17;;
14738;SDS011;7461;52.440;13.540;2022-10-04T01:38:00;7.72;;;2.65;;
14738;SDS011;7461;52.440;13.540;2022-10-04T01:40:31;9.23;;;3.05;;
14738;SDS011;7461;52.440;13.540;2022-10-04T01:43:00;6.30;;;3.08;;
14738;SDS011;7461;52.440;13.540;2022-10-04T01:45:31;7.03;;;3.55;;
14738;SDS011;7461;52.440;13.540;2022-10-04T01:48:04;7.43;;;2.95;;
14738;SDS011;7461;52.440;13.540;2022-10-04T01:50:34;6.05;;;2.25;;
14738;SDS011;7461;52.440;13.540;2022-10-04T01:53:09;9.35;;;3.70;;
14738;SDS011;7461;52.440;13.540;2022-10-04T01:55:40;6.13;;;2.63;;
14738;SDS011;7461;52.440;13.540;2022-10-04T01:58:10;7.82;;;3.97;;
14738;SDS011;7461;52.440;13.540;2022-10-04T02:00:42;4.68;;;2.53;;
14738;SDS011;7461;52.440;13.540;2022-10-04T02:03:15;6.45;;;3.15;;
14738;SDS011;7461;52.440;13.540;2022-10-04T02:05:48;5.00;;;2.47;;
14738;SDS011;7461;52.440;13.540;2022-10-04T02:08:21;4.32;;;2.33;;
14738;SDS011;7461;52.440;13.540;2022-10-04T02:10:50;9.55;;;4.25;;
14738;SDS011;7461;52.440;13.540;2022-10-04T02:13:18;7.35;;;2.78;;
14738;SDS011;7461;52.440;13.540;2022-10-04T02:15:47;11.10;;;2.55;;
14738;SDS011;7461;52.440;13.540;2022-10-04T02:18:16;8.45;;;3.42;;
14738;SDS011;7461;52.440;13.540;2022-10-04T02:20:45;12.15;;;4.00;;
14738;SDS011;7461;52.440;13.540;2022-10-04T02:23:15;8.60;;;2.85;;
14738;SDS011;7461;52.440;13.540;2022-10-04T02:25:44;10.10;;;3.20;;
14738;SDS011;7461;52.440;13.540;2022-10-04T02:28:12;10.38;;;5.28;;
14738;SDS011;7461;52.440;13.540;2022-10-04T02:30:41;7.43;;;3.95;;
14738;SDS011;7461;52.440;13.540;2022-10-04T02:33:30;8.07;;;3.20;;
14738;SDS011;7461;52.440;13.540;2022-10-04T02:35:57;5.38;;;3.70;;
14738;SDS011;7461;52.440;13.540;2022-10-04T02:38:24;5.05;;;3.92;;
14738;SDS011;7461;52.440;13.540;2022-10-04T02:41:01;5.85;;;3.95;;
14738;SDS011;7461;52.440;13.540;2022-10-04T02:43:37;8.48;;;3.38;;
14738;SDS011;7461;52.440;13.540;2022-10-04T02:46:10;7.75;;;2.80;;
14738;SDS011;7461;52.440;13.540;2022-10-04T02:48:43;6.13;;;3.20;;
14738;SDS011;7461;52.440;13.540;2022-10-04T02:51:14;5.97;;;2.83;;
14738;SDS011;7461;52.440;13.540;2022-10-04T02:53:51;7.85;;;3.95;;
14738;SDS011;7461;52.440;13.540;2022-10-04T02:56:26;2.75;;;2.50;;
14738;SDS011;7461;52.440;13.540;2022-10-04T02:58:54;4.90;;;2.78;;
14738;SDS011;7461;52.440;13.540;2022-10-04T03:01:27;4.45;;;3.33;;
14738;SDS011;7461;52.440;13.540;2022-10-04T03:04:02;9.57;;;3.13;;
14738;SDS011;7461;52.440;13.540;2022-10-04T03:06:30;6.43;;;2.70;;
14738;SDS011;7461;52.440;13.540;2022-10-04T03:08:59;7.10;;;2.90;;
14738;SDS011;7461;52.440;13.540;2022-10-04T03:11:32;7.35;;;2.67;;
14738;SDS011;7461;52.440;13.540;2022-10-04T03:14:02;6.95;;;3.70;;
14738;SDS011;7461;52.440;13.540;2022-10-04T03:16:33;8.20;;;3.60;;
14738;SDS011;7461;52.440;13.540;2022-10-04T03:19:02;5.70;;;2.97;;
14738;SDS011;7461;52.440;13.540;2022-10-04T03:21:30;8.57;;;3.88;;
14738;SDS011;7461;52.440;13.540;2022-10-04T03:23:58;6.95;;;3.05;;
14738;SDS011;7461;52.440;13.540;2022-10-04T03:26:27;6.63;;;2.33;;
14738;SDS011;7461;52.440;13.540;2022-10-04T03:28:59;6.22;;;3.03;;
14738;SDS011;7461;52.440;13.540;2022-10-04T03:31:27;5.70;;;2.80;;
14738;SDS011;7461;52.440;13.540;2022-10-04T03:33:54;4.78;;;2.65;;
14738;SDS011;7461;52.440;13.540;2022-10-04T03:36:22;5.20;;;2.78;;
14738;SDS011;7461;52.440;13.540;2022-10-04T03:38:51;3.55;;;2.15;;
14738;SDS011;7461;52.440;13.540;2022-10-04T03:41:21;5.80;;;2.97;;
14738;SDS011;7461;52.440;13.540;2022-10-04T03:43:50;7.97;;;3.50;;
14738;SDS011;7461;52.440;13.540;2022-10-04T03:46:21;10.70;;;4.30;;
14738;SDS011;7461;52.440;13.540;2022-10-04T03:48:50;11.50;;;3.47;;
14738;SDS011;7461;52.440;13.540;2022-10-04T03:51:19;5.53;;;3.58;;
14738;SDS011;7461;52.440;13.540;2022-10-04T03:53:49;9.43;;;4.43;;
14738;SDS011;7461;52.440;13.540;2022-10-04T03:56:18;9.13;;;4.88;;
14738;SDS011;7461;52.440;13.540;2022-10-04T03:58:48;6.32;;;3.55;;
14738;SDS011;7461;52.440;13.540;2022-10-04T04:01:19;9.18;;;4.10;;
14738;SDS011;7461;52.440;13.540;2022-10-04T04:04:00;9.35;;;3.55;;
14738;SDS011;7461;52.440;13.540;2022-10-04T04:06:34;9.73;;;3.70;;
14738;SDS011;7461;52.440;13.540;2022-10-04T04:09:06;7.53;;;3.00;;
14738;SDS011;7461;52.440;13.540;2022-10-04T04:11:34;9.90;;;3.72;;
14738;SDS011;7461;52.440;13.540;2022-10-04T04:14:02;3.88;;;2.90;;
14738;SDS011;7461;52.440;13.540;2022-10-04T04:16:35;6.80;;;3.38;;
14738;SDS011;7461;52.440;13.540;2022-10-04T04:19:03;7.75;;;3.38;;
14738;SDS011;7461;52.440;13.540;2022-10-04T04:21:37;10.57;;;2.85;;
14738;SDS011;7461;52.440;13.540;2022-10-04T04:24:05;5.63;;;3.58;;
14738;SDS011;7461;52.440;13.540;2022-10-04T04:26:49;4.78;;;3.22;;
14738;SDS011;7461;52.440;13.540;2022-10-04T04:29:21;8.05;;;4.30;;
14738;SDS011;7461;52.440;13.540;2022-10-04T04:31:51;11.10;;;3.78;;
14738;SDS011;7461;52.440;13.540;2022-10-04T04:34:24;5.43;;;3.20;;
14738;SDS011;7461;52.440;13.540;2022-10-04T04:36:56;6.32;;;2.97;;
14738;SDS011;7461;52.440;13.540;2022-10-04T04:39:24;8.50;;;3.95;;
14738;SDS011;7461;52.440;13.540;2022-10-04T04:44:30;10.10;;;3.92;;
14738;SDS011;7461;52.440;13.540;2022-10-04T04:46:58;6.93;;;2.92;;
14738;SDS011;7461;52.440;13.540;2022-10-04T04:49:25;4.78;;;3.10;;
14738;SDS011;7461;52.440;13.540;2022-10-04T04:51:55;5.05;;;2.95;;
14738;SDS011;7461;52.440;13.540;2022-10-04T04:54:23;5.78;;;3.53;;
14738;SDS011;7461;52.440;13.540;2022-10-04T04:56:52;4.90;;;2.47;;
14738;SDS011;7461;52.440;13.540;2022-10-04T04:59:21;5.22;;;2.97;;
14738;SDS011;7461;52.440;13.540;2022-10-04T05:01:51;4.28;;;3.13;;
14738;SDS011;7461;52.440;13.540;2022-10-04T05:04:20;6.20;;;2.80;;
14738;SDS011;7461;52.440;13.540;2022-10-04T05:06:57;4.13;;;2.78;;
14738;SDS011;7461;52.440;13.540;2022-10-04T05:09:28;7.72;;;3.38;;
14738;SDS011;7461;52.440;13.540;2022-10-04T05:11:56;6.10;;;2.92;;
14738;SDS011;7461;52.440;13.540;2022-10-04T05:14:32;6.97;;;3.30;;
14738;SDS011;7461;52.440;13.540;2022-10-04T05:17:02;6.70;;;3.85;;
14738;SDS011;7461;52.440;13.540;2022-10-04T05:19:31;8.48;;;3.15;;
14738;SDS011;7461;52.440;13.540;2022-10-04T05:22:01;7.57;;;3.67;;
14738;SDS011;7461;52.440;13.540;2022-10-04T05:24:33;8.23;;;3.40;;
14738;SDS011;7461;52.440;13.540;2022-10-04T05:27:04;6.60;;;4.20;;
14738;SDS011;7461;52.440;13.540;2022-10-04T05:29:35;6.63;;;3.33;;
14738;SDS011;7461;52.440;13.540;2022-10-04T05:32:08;8.77;;;3.80;;
14738;SDS011;7461;52.440;13.540;2022-10-04T05:34:47;7.93;;;3.47;;
14738;SDS011;7461;52.440;13.540;2022-10-04T05:37:23;7.82;;;3.67;;
14738;SDS011;7461;52.440;13.540;2022-10-04T05:40:15;8.32;;;3.83;;
14738;SDS011;7461;52.440;13.540;2022-10-04T05:42:52;8.57;;;4.47;;
14738;SDS011;7461;52.440;13.540;2022-10-04T05:45:22;5.63;;;3.72;;
14738;SDS011;7461;52.440;13.540;2022-10-04T05:47:52;11.65;;;3.78;;
14738;SDS011;7461;52.440;13.540;2022-10-04T05:50:25;8.38;;;3.38;;
14738;SDS011;7461;52.440;13.540;2022-10-04T05:53:06;7.55;;;4.00;;
14738;SDS011;7461;52.440;13.540;2022-10-04T05:55:44;7.57;;;4.60;;
14738;SDS011;7461;52.440;13.540;2022-10-04T06:01:21;6.18;;;4.05;;
14738;SDS011;7461;52.440;13.540;2022-10-04T06:04:04;6.68;;;3.72;;
14738;SDS011;7461;52.440;13.540;2022-10-04T06:06:56;5.90;;;3.45;;
14738;SDS011;7461;52.440;13.540;2022-10-04T06:09:41;8.25;;;3.97;;
14738;SDS011;7461;52.440;13.540;2022-10-04T06:12:23;6.93;;;3.42;;
14738;SDS011;7461;52.440;13.540;2022-10-04T06:15:06;7.30;;;4.22;;
14738;SDS011;7461;52.440;13.540;2022-10-04T06:17:54;6.35;;;3.88;;
14738;SDS011;7461;52.440;13.540;2022-10-04T06:20:38;3.55;;;3.13;;
14738;SDS011;7461;52.440;13.540;2022-10-04T06:23:17;8.40;;;4.45;;
14738;SDS011;7461;52.440;13.540;2022-10-04T06:25:46;8.45;;;5.15;;
14738;SDS011;7461;52.440;13.540;2022-10-04T06:28:20;6.80;;;3.95;;
14738;SDS011;7461;52.440;13.540;2022-10-04T06:30:55;9.60;;;4.53;;
14738;SDS011;7461;52.440;13.540;2022-10-04T06:33:42;7.10;;;3.42;;
14738;SDS011;7461;52.440;13.540;2022-10-04T06:36:26;4.57;;;3.40;;
14738;SDS011;7461;52.440;13.540;2022-10-04T06:42:27;6.18;;;4.32;;
14738;SDS011;7461;52.440;13.540;2022-10-04T06:45:19;8.85;;;4.40;;
14738;SDS011;7461;52.440;13.540;2022-10-04T06:48:00;5.82;;;3.72;;
14738;SDS011;7461;52.440;13.540;2022-10-04T06:50:45;10.20;;;3.75;;
14738;SDS011;7461;52.440;13.540;2022-10-04T06:53:23;6.00;;;3.47;;
14738;SDS011;7461;52.440;13.540;2022-10-04T06:56:02;12.68;;;4.47;;
14738;SDS011;7461;52.440;13.540;2022-10-04T06:58:46;6.18;;;3.28;;
14738;SDS011;7461;52.440;13.540;2022-10-04T07:01:37;6.07;;;3.60;;
14738;SDS011;7461;52.440;13.540;2022-10-04T07:04:17;9.73;;;6.05;;
14738;SDS011;7461;52.440;13.540;2022-10-04T07:06:52;5.20;;;3.90;;
14738;SDS011;7461;52.440;13.540;2022-10-04T07:09:46;6.45;;;4.05;;
14738;SDS011;7461;52.440;13.540;2022-10-04T07:12:17;5.63;;;3.65;;
14738;SDS011;7461;52.440;13.540;2022-10-04T07:14:45;5.25;;;2.95;;
14738;SDS011;7461;52.440;13.540;2022-10-04T07:17:18;9.75;;;4.10;;
14738;SDS011;7461;52.440;13.540;2022-10-04T07:19:51;4.47;;;3.55;;
14738;SDS011;7461;52.440;13.540;2022-10-04T07:22:21;5.82;;;3.25;;
14738;SDS011;7461;52.440;13.540;2022-10-04T07:25:04;6.40;;;3.10;;
14738;SDS011;7461;52.440;13.540;2022-10-04T07:27:43;10.95;;;4.07;;
14738;SDS011;7461;52.440;13.540;2022-10-04T07:30:35;8.73;;;4.03;;
14738;SDS011;7461;52.440;13.540;2022-10-04T07:33:05;4.95;;;3.45;;
14738;SDS011;7461;52.440;13.540;2022-10-04T07:35:42;7.88;;;4.45;;
14738;SDS011;7461;52.440;13.540;2022-10-04T07:38:14;6.75;;;3.72;;
14738;SDS011;7461;52.440;13.540;2022-10-04T07:40:56;8.15;;;4.75;;
14738;SDS011;7461;52.440;13.540;2022-10-04T07:43:30;5.45;;;4.50;;
14738;SDS011;7461;52.440;13.540;2022-10-04T07:46:00;5.97;;;4.65;;
14738;SDS011;7461;52.440;13.540;2022-10-04T07:48:31;9.85;;;4.97;;
14738;SDS011;7461;52.440;13.540;2022-10-04T07:51:00;8.23;;;4.25;;
14738;SDS011;7461;52.440;13.540;2022-10-04T07:53:37;7.18;;;4.53;;
14738;SDS011;7461;52.440;13.540;2022-10-04T07:56:09;8.52;;;4.80;;
14738;SDS011;7461;52.440;13.540;2022-10-04T07:58:43;6.63;;;5.00;;
14738;SDS011;7461;52.440;13.540;2022-10-04T08:11:04;11.98;;;5.80;;
14738;SDS011;7461;52.440;13.540;2022-10-04T08:13:43;17.15;;;6.35;;
14738;SDS011;7461;52.440;13.540;2022-10-04T08:16:27;5.22;;;4.65;;
14738;SDS011;7461;52.440;13.540;2022-10-04T08:19:10;9.20;;;4.35;;
14738;SDS011;7461;52.440;13.540;2022-10-04T08:21:53;5.20;;;4.63;;
14738;SDS011;7461;52.440;13.540;2022-10-04T08:24:28;8.07;;;4.40;;
14738;SDS011;7461;52.440;13.540;2022-10-04T08:27:15;8.50;;;5.13;;
14738;SDS011;7461;52.440;13.540;2022-10-04T08:29:59;9.35;;;6.28;;
14738;SDS011;7461;52.440;13.540;2022-10-04T08:32:30;9.70;;;6.05;;
14738;SDS011;7461;52.440;13.540;2022-10-04T08:38:04;5.38;;;4.40;;
14738;SDS011;7461;52.440;13.540;2022-10-04T08:47:45;6.43;;;5.57;;
14738;SDS011;7461;52.440;13.540;2022-10-04T08:54:04;6.30;;;5.55;;
14738;SDS011;7461;52.440;13.540;2022-10-04T08:57:11;6.65;;;6.03;;
14738;SDS011;7461;52.440;13.540;2022-10-04T09:00:07;6.97;;;6.22;;
14738;SDS011;7461;52.440;13.540;2022-10-04T09:02:48;7.57;;;6.22;;
14738;SDS011;7461;52.440;13.540;2022-10-04T09:05:49;7.90;;;5.20;;
14738;SDS011;7461;52.440;13.540;2022-10-04T09:11:39;8.55;;;6.07;;
14738;SDS011;7461;52.440;13.540;2022-10-04T09:14:28;9.65;;;6.82;;
14738;SDS011;7461;52.440;13.540;2022-10-04T09:17:20;6.28;;;5.78;;
14738;SDS011;7461;52.440;13.540;2022-10-04T09:20:00;8.23;;;5.97;;
14738;SDS011;7461;52.440;13.540;2022-10-04T09:22:41;7.20;;;5.85;;
14738;SDS011;7461;52.440;13.540;2022-10-04T09:28:17;8.63;;;6.35;;
14738;SDS011;7461;52.440;13.540;2022-10-04T09:31:06;5.82;;;5.32;;
14738;SDS011;7461;52.440;13.540;2022-10-04T09:33:50;5.75;;;5.35;;
14738;SDS011;7461;52.440;13.540;2022-10-04T09:36:36;6.50;;;5.90;;
14738;SDS011;7461;52.440;13.540;2022-10-04T09:39:29;7.15;;;5.18;;
14738;SDS011;7461;52.440;13.540;2022-10-04T09:42:16;6.70;;;5.22;;
14738;SDS011;7461;52.440;13.540;2022-10-04T09:51:03;5.07;;;4.38;;
14738;SDS011;7461;52.440;13.540;2022-10-04T09:54:00;5.20;;;4.05;;
14738;SDS011;7461;52.440;13.540;2022-10-04T09:59:48;5.63;;;3.13;;
14738;SDS011;7461;52.440;13.540;2022-10-04T10:05:27;4.13;;;3.72;;
14738;SDS011;7461;52.440;13.540;2022-10-04T10:08:07;4.53;;;2.85;;
14738;SDS011;7461;52.440;13.540;2022-10-04T10:10:43;5.32;;;3.10;;
14738;SDS011;7461;52.440;13.540;2022-10-04T10:13:42;5.50;;;2.97;;
14738;SDS011;7461;52.440;13.540;2022-10-04T10:16:47;7.03;;;2.75;;
14738;SDS011;7461;52.440;13.540;2022-10-04T10:19:34;6.35;;;2.97;;
14738;SDS011;7461;52.440;13.540;2022-10-04T10:22:24;4.18;;;2.35;;
14738;SDS011;7461;52.440;13.540;2022-10-04T10:25:15;2.47;;;2.08;;
14738;SDS011;7461;52.440;13.540;2022-10-04T10:28:00;2.95;;;2.20;;
14738;SDS011;7461;52.440;13.540;2022-10-04T10:30:47;4.18;;;2.15;;
14738;SDS011;7461;52.440;13.540;2022-10-04T10:33:32;2.38;;;2.22;;
14738;SDS011;7461;52.440;13.540;2022-10-04T10:36:34;2.72;;;1.77;;
14738;SDS011;7461;52.440;13.540;2022-10-04T10:39:18;3.50;;;2.42;;
14738;SDS011;7461;52.440;13.540;2022-10-04T10:42:05;6.45;;;2.75;;
14738;SDS011;7461;52.440;13.540;2022-10-04T10:44:56;3.78;;;2.35;;
14738;SDS011;7461;52.440;13.540;2022-10-04T10:47:37;3.90;;;2.75;;
14738;SDS011;7461;52.440;13.540;2022-10-04T10:50:20;3.97;;;2.28;;
14738;SDS011;7461;52.440;13.540;2022-10-04T10:53:08;3.40;;;2.40;;
14738;SDS011;7461;52.440;13.540;2022-10-04T10:59:00;3.15;;;2.25;;
14738;SDS011;7461;52.440;13.540;2022-10-04T11:01:52;3.65;;;2.83;;
14738;SDS011;7461;52.440;13.540;2022-10-04T11:04:44;5.60;;;2.05;;
14738;SDS011;7461;52.440;13.540;2022-10-04T11:13:33;7.30;;;4.03;;
14738;SDS011;7461;52.440;13.540;2022-10-04T11:16:44;3.42;;;2.38;;
14738;SDS011;7461;52.440;13.540;2022-10-04T11:19:44;3.90;;;2.97;;
14738;SDS011;7461;52.440;13.540;2022-10-04T11:22:45;5.45;;;2.97;;
14738;SDS011;7461;52.440;13.540;2022-10-04T11:25:55;5.55;;;2.40;;
14738;SDS011;7461;52.440;13.540;2022-10-04T11:28:51;7.28;;;3.08;;
14738;SDS011;7461;52.440;13.540;2022-10-04T11:34:35;5.53;;;3.03;;
14738;SDS011;7461;52.440;13.540;2022-10-04T11:37:37;5.43;;;2.97;;
14738;SDS011;7461;52.440;13.540;2022-10-04T11:40:22;4.72;;;2.10;;
14738;SDS011;7461;52.440;13.540;2022-10-04T11:43:07;4.95;;;2.65;;
14738;SDS011;7461;52.440;13.540;2022-10-04T11:45:55;4.32;;;2.53;;
14738;SDS011;7461;52.440;13.540;2022-10-04T11:48:40;3.67;;;3.15;;
14738;SDS011;7461;52.440;13.540;2022-10-04T11:57:25;3.83;;;2.38;;
14738;SDS011;7461;52.440;13.540;2022-10-04T12:00:05;5.32;;;2.92;;
14738;SDS011;7461;52.440;13.540;2022-10-04T12:08:49;7.45;;;2.70;;
14738;SDS011;7461;52.440;13.540;2022-10-04T12:11:41;4.05;;;2.53;;
14738;SDS011;7461;52.440;13.540;2022-10-04T12:15:02;7.05;;;2.75;;
14738;SDS011;7461;52.440;13.540;2022-10-04T12:24:14;5.32;;;2.10;;
14738;SDS011;7461;52.440;13.540;2022-10-04T12:27:09;6.90;;;2.78;;
14738;SDS011;7461;52.440;13.540;2022-10-04T12:30:15;6.38;;;2.97;;
14738;SDS011;7461;52.440;13.540;2022-10-04T12:32:59;5.50;;;3.38;;
14738;SDS011;7461;52.440;13.540;2022-10-04T12:35:34;9.60;;;3.05;;
14738;SDS011;7461;52.440;13.540;2022-10-04T12:38:30;7.85;;;3.22;;
14738;SDS011;7461;52.440;13.540;2022-10-04T12:41:15;4.30;;;2.80;;
14738;SDS011;7461;52.440;13.540;2022-10-04T12:43:53;5.20;;;2.20;;
14738;SDS011;7461;52.440;13.540;2022-10-04T12:46:33;4.47;;;2.63;;
14738;SDS011;7461;52.440;13.540;2022-10-04T12:49:15;3.47;;;2.63;;
14738;SDS011;7461;52.440;13.540;2022-10-04T12:51:51;5.75;;;2.78;;
14738;SDS011;7461;52.440;13.540;2022-10-04T12:54:26;4.30;;;2.25;;
14738;SDS011;7461;52.440;13.540;2022-10-04T12:57:04;5.70;;;2.40;;
14738;SDS011;7461;52.440;13.540;2022-10-04T12:59:57;4.80;;;2.10;;
14738;SDS011;7461;52.440;13.540;2022-10-04T13:02:44;7.53;;;2.08;;
14738;SDS011;7461;52.440;13.540;2022-10-04T13:05:29;6.00;;;2.78;;
14738;SDS011;7461;52.440;13.540;2022-10-04T13:11:07;9.48;;;2.95;;
14738;SDS011;7461;52.440;13.540;2022-10-04T13:16:55;5.15;;;2.25;;
14738;SDS011;7461;52.440;13.540;2022-10-04T13:19:31;4.90;;;2.28;;
14738;SDS011;7461;52.440;13.540;2022-10-04T13:22:09;6.60;;;2.60;;
14738;SDS011;7461;52.440;13.540;2022-10-04T13:24:50;3.28;;;2.08;;
14738;SDS011;7461;52.440;13.540;2022-10-04T13:27:32;6.70;;;2.80;;
14738;SDS011;7461;52.440;13.540;2022-10-04T13:30:15;7.57;;;2.10;;
14738;SDS011;7461;52.440;13.540;2022-10-04T13:32:49;3.42;;;2.10;;
14738;SDS011;7461;52.440;13.540;2022-10-04T13:35:26;4.40;;;2.28;;
14738;SDS011;7461;52.440;13.540;2022-10-04T13:38:03;7.07;;;2.40;;
14738;SDS011;7461;52.440;13.540;2022-10-04T13:40:47;7.22;;;1.98;;
14738;SDS011;7461;52.440;13.540;2022-10-04T13:43:33;5.10;;;2.70;;
14738;SDS011;7461;52.440;13.540;2022-10-04T13:46:22;3.95;;;2.00;;
14738;SDS011;7461;52.440;13.540;2022-10-04T13:49:02;8.40;;;3.00;;
14738;SDS011;7461;52.440;13.540;2022-10-04T13:51:42;3.17;;;2.17;;
14738;SDS011;7461;52.440;13.540;2022-10-04T13:54:38;5.70;;;2.78;;
14738;SDS011;7461;52.440;13.540;2022-10-04T13:57:29;3.67;;;1.45;;
14738;SDS011;7461;52.440;13.540;2022-10-04T14:00:03;4.30;;;1.63;;
14738;SDS011;7461;52.440;13.540;2022-10-04T14:02:44;4.10;;;1.88;;
14738;SDS011;7461;52.440;13.540;2022-10-04T14:11:47;2.85;;;1.75;;
14738;SDS011;7461;52.440;13.540;2022-10-04T14:14:50;3.28;;;1.75;;
14738;SDS011;7461;52.440;13.540;2022-10-04T14:20:47;3.25;;;1.58;;
14738;SDS011;7461;52.440;13.540;2022-10-04T14:26:46;4.07;;;1.48;;
14738;SDS011;7461;52.440;13.540;2022-10-04T14:29:32;4.55;;;1.85;;
14738;SDS011;7461;52.440;13.540;2022-10-04T14:32:35;5.07;;;2.33;;
14738;SDS011;7461;52.440;13.540;2022-10-04T14:35:20;1.52;;;1.00;;
14738;SDS011;7461;52.440;13.540;2022-10-04T14:38:16;4.40;;;1.60;;
14738;SDS011;7461;52.440;13.540;2022-10-04T14:41:08;1.77;;;1.40;;
14738;SDS011;7461;52.440;13.540;2022-10-04T14:44:14;2.92;;;1.48;;
14738;SDS011;7461;52.440;13.540;2022-10-04T14:47:10;3.70;;;1.80;;
14738;SDS011;7461;52.440;13.540;2022-10-04T14:49:59;3.67;;;1.38;;
14738;SDS011;7461;52.440;13.540;2022-10-04T14:52:42;3.08;;;1.20;;
14738;SDS011;7461;52.440;13.540;2022-10-04T14:55:26;4.47;;;1.35;;
14738;SDS011;7461;52.440;13.540;2022-10-04T14:58:05;2.80;;;1.83;;
14738;SDS011;7461;52.440;13.540;2022-10-04T15:00:53;3.17;;;2.85;;
14738;SDS011;7461;52.440;13.540;2022-10-04T15:03:30;4.35;;;1.50;;
14738;SDS011;7461;52.440;13.540;2022-10-04T15:06:08;4.30;;;1.20;;
14738;SDS011;7461;52.440;13.540;2022-10-04T15:08:41;2.22;;;2.03;;
14738;SDS011;7461;52.440;13.540;2022-10-04T15:11:35;3.08;;;2.88;;
14738;SDS011;7461;52.440;13.540;2022-10-04T15:14:19;3.20;;;1.60;;
14738;SDS011;7461;52.440;13.540;2022-10-04T15:17:09;2.90;;;2.55;;
14738;SDS011;7461;52.440;13.540;2022-10-04T15:19:59;2.50;;;1.90;;
14738;SDS011;7461;52.440;13.540;2022-10-04T15:22:36;4.70;;;2.17;;
14738;SDS011;7461;52.440;13.540;2022-10-04T15:28:13;3.10;;;1.40;;
14738;SDS011;7461;52.440;13.540;2022-10-04T15:31:11;2.63;;;1.63;;
14738;SDS011;7461;52.440;13.540;2022-10-04T15:33:45;5.65;;;1.58;;
14738;SDS011;7461;52.440;13.540;2022-10-04T15:36:33;4.10;;;2.00;;
14738;SDS011;7461;52.440;13.540;2022-10-04T15:39:32;3.47;;;3.10;;
14738;SDS011;7461;52.440;13.540;2022-10-04T15:42:23;2.47;;;2.28;;
14738;SDS011;7461;52.440;13.540;2022-10-04T15:48:03;3.33;;;1.67;;
14738;SDS011;7461;52.440;13.540;2022-10-04T15:50:53;3.72;;;1.55;;
14738;SDS011;7461;52.440;13.540;2022-10-04T15:53:47;3.90;;;1.67;;
14738;SDS011;7461;52.440;13.540;2022-10-04T15:56:32;2.33;;;1.65;;
14738;SDS011;7461;52.440;13.540;2022-10-04T16:05:14;4.07;;;1.70;;
14738;SDS011;7461;52.440;13.540;2022-10-04T16:07:52;5.55;;;2.00;;
14738;SDS011;7461;52.440;13.540;2022-10-04T16:13:34;1.52;;;1.20;;
14738;SDS011;7461;52.440;13.540;2022-10-04T16:19:24;1.48;;;1.38;;
14738;SDS011;7461;52.440;13.540;2022-10-04T16:22:10;1.70;;;1.10;;
14738;SDS011;7461;52.440;13.540;2022-10-04T16:24:41;2.13;;;2.00;;
14738;SDS011;7461;52.440;13.540;2022-10-04T16:27:26;2.92;;;1.98;;
14738;SDS011;7461;52.440;13.540;2022-10-04T16:30:11;4.93;;;2.03;;
14738;SDS011;7461;52.440;13.540;2022-10-04T16:32:44;3.65;;;2.05;;
14738;SDS011;7461;52.440;13.540;2022-10-04T16:35:25;6.55;;;1.58;;
14738;SDS011;7461;52.440;13.540;2022-10-04T16:37:59;5.50;;;2.15;;
14738;SDS011;7461;52.440;13.540;2022-10-04T16:40:46;2.58;;;1.98;;
14738;SDS011;7461;52.440;13.540;2022-10-04T16:43:27;3.38;;;2.70;;
14738;SDS011;7461;52.440;13.540;2022-10-04T16:46:03;5.00;;;3.45;;
14738;SDS011;7461;52.440;13.540;2022-10-04T16:48:44;6.20;;;5.20;;
14738;SDS011;7461;52.440;13.540;2022-10-04T16:54:31;4.63;;;3.83;;
14738;SDS011;7461;52.440;13.540;2022-10-04T16:57:19;4.95;;;4.05;;
14738;SDS011;7461;52.440;13.540;2022-10-04T16:59:51;6.00;;;5.50;;
14738;SDS011;7461;52.440;13.540;2022-10-04T17:05:17;6.00;;;3.90;;
14738;SDS011;7461;52.440;13.540;2022-10-04T17:07:56;4.95;;;4.53;;
14738;SDS011;7461;52.440;13.540;2022-10-04T17:10:44;4.07;;;;;
14738;SDS011;7461;52.440;13.540;2022-10-04T17:13:42;3.40;;;3.08;;
14738;SDS011;7461;52.440;13.540;2022-10-04T17:16:16;4.35;;;4.05;;
14738;SDS011;7461;52.440;13.540;2022-10-04T17:18:50;5.40;;;3.80;;
14738;SDS011;7461;52.440;13.540;2022-10-04T17:21:23;3.83;;;3.45;;
14738;SDS011;7461;52.440;13.540;2022-10-04T17:24:03;3.40;;;3.20;;
14738;SDS011;7461;52.440;13.540;2022-10-04T17:26:47;4.20;;;3.90;;
14738;SDS011;7461;52.440;13.540;2022-10-04T17:29:42;4.50;;;3.72;;
14738;SDS011;7461;52.440;13.540;2022-10-04T17:32:20;5.07;;;4.72;;
14738;SDS011;7461;52.440;13.540;2022-10-04T17:34:56;4.22;;;3.83;;
14738;SDS011;7461;52.440;13.540;2022-10-04T17:37:39;5.18;;;4.30;;
14738;SDS011;7461;52.440;13.540;2022-10-04T17:40:23;8.95;;;5.38;;
14738;SDS011;7461;52.440;13.540;2022-10-04T17:43:04;5.45;;;4.95;;
14738;SDS011;7461;52.440;13.540;2022-10-04T17:48:30;5.57;;;5.07;;
14738;SDS011;7461;52.440;13.540;2022-10-04T17:51:32;8.13;;;6.63;;
14738;SDS011;7461;52.440;13.540;2022-10-04T17:54:21;6.57;;;5.97;;
14738;SDS011;7461;52.440;13.540;2022-10-04T17:57:14;6.57;;;5.97;;
14738;SDS011;7461;52.440;13.540;2022-10-04T17:59:48;6.88;;;6.25;;
14738;SDS011;7461;52.440;13.540;2022-10-04T18:02:21;8.07;;;7.35;;
14738;SDS011;7461;52.440;13.540;2022-10-04T18:04:54;6.75;;;6.15;;
14738;SDS011;7461;52.440;13.540;2022-10-04T18:07:23;9.32;;;8.48;;
14738;SDS011;7461;52.440;13.540;2022-10-04T18:09:54;8.57;;;7.18;;
14738;SDS011;7461;52.440;13.540;2022-10-04T18:12:25;7.90;;;6.97;;
14738;SDS011;7461;52.440;13.540;2022-10-04T18:14:58;6.90;;;5.50;;
14738;SDS011;7461;52.440;13.540;2022-10-04T18:17:32;9.23;;;6.15;;